createdAt,value
2022-08-23T00:00:13.291Z,4.63
2022-08-23T00:02:43.665Z,4.90
2022-08-23T00:05:12.737Z,4.53
2022-08-23T00:07:44.072Z,4.80
2022-08-23T00:10:16.981Z,4.68
2022-08-23T00:12:47.057Z,4.28
2022-08-23T00:15:20.784Z,4.72
2022-08-23T00:17:50.401Z,4.50
2022-08-23T00:20:21.201Z,4.53
2022-08-23T00:22:49.382Z,4.90
2022-08-23T00:25:17.793Z,5.15
2022-08-23T00:27:46.015Z,4.55
2022-08-23T00:30:16.769Z,5.13
2022-08-23T00:32:46.053Z,4.78
2022-08-23T00:35:26.814Z,4.80
2022-08-23T00:38:31.824Z,4.70
2022-08-23T00:40:47.560Z,5.05
2022-08-23T00:43:38.921Z,4.68
2022-08-23T00:46:40.715Z,5.50
2022-08-23T00:49:14.072Z,5.10
2022-08-23T00:51:53.640Z,5.25
2022-08-23T00:54:25.388Z,5.13
2022-08-23T00:56:54.996Z,5.18
2022-08-23T00:59:23.888Z,5.50
2022-08-23T01:01:52.973Z,5.88
2022-08-23T01:04:21.861Z,5.65
2022-08-23T01:07:00.337Z,5.45
2022-08-23T01:09:28.919Z,6.00
2022-08-23T01:12:06.921Z,5.57
2022-08-23T01:14:42.650Z,6.10
2022-08-23T01:17:17.645Z,5.57
2022-08-23T01:19:51.798Z,5.78
2022-08-23T01:22:31.038Z,5.78
2022-08-23T01:25:07.398Z,5.88
2022-08-23T01:27:38.326Z,5.72
2022-08-23T01:30:11.783Z,5.70
2022-08-23T01:32:46.865Z,5.57
2022-08-23T01:35:16.819Z,5.22
2022-08-23T01:37:45.847Z,5.30
2022-08-23T01:40:16.154Z,5.55
2022-08-23T01:42:44.784Z,5.13
2022-08-23T01:45:15.586Z,5.55
2022-08-23T01:47:44.178Z,6.00
2022-08-23T01:50:14.062Z,5.70
2022-08-23T01:52:47.156Z,5.35
2022-08-23T01:55:18.309Z,5.30
2022-08-23T01:57:50.172Z,5.30
2022-08-23T02:00:20.115Z,5.47
2022-08-23T02:02:48.273Z,5.63
2022-08-23T02:05:19.003Z,5.75
2022-08-23T02:07:48.012Z,5.93
2022-08-23T02:10:17.917Z,5.55
2022-08-23T02:12:46.694Z,5.95
2022-08-23T02:15:16.101Z,5.60
2022-08-23T02:17:46.499Z,5.45
2022-08-23T02:20:15.203Z,5.85
2022-08-23T02:22:43.336Z,5.82
2022-08-23T02:25:11.752Z,5.97
2022-08-23T02:27:44.104Z,6.30
2022-08-23T02:30:14.683Z,6.20
2022-08-23T02:32:42.751Z,6.20
2022-08-23T02:35:12.027Z,5.82
2022-08-23T02:37:40.277Z,5.88
2022-08-23T02:40:09.897Z,5.60
2022-08-23T02:42:38.110Z,6.30
2022-08-23T02:45:09.415Z,6.18
2022-08-23T02:47:38.812Z,5.80
2022-08-23T02:50:09.337Z,5.72
2022-08-23T02:52:37.523Z,6.38
2022-08-23T02:55:07.520Z,6.07
2022-08-23T02:57:35.681Z,5.72
2022-08-23T03:00:05.696Z,6.10
2022-08-23T03:02:35.279Z,5.95
2022-08-23T03:05:03.504Z,5.75
2022-08-23T03:07:31.947Z,6.00
2022-08-23T03:10:00.270Z,6.40
2022-08-23T03:12:28.584Z,6.20
2022-08-23T03:14:56.750Z,6.63
2022-08-23T03:17:25.577Z,6.00
2022-08-23T03:19:55.326Z,6.07
2022-08-23T03:22:24.188Z,5.90
2022-08-23T03:24:52.448Z,5.50
2022-08-23T03:27:20.594Z,6.20
2022-08-23T03:29:48.823Z,6.10
2022-08-23T03:32:17.054Z,6.10
2022-08-23T03:34:45.384Z,6.47
2022-08-23T03:37:15.420Z,6.47
2022-08-23T03:39:43.507Z,6.10
2022-08-23T03:42:11.986Z,5.93
2022-08-23T03:44:40.319Z,6.30
2022-08-23T03:47:08.742Z,5.65
2022-08-23T03:49:37.191Z,6.30
2022-08-23T03:52:05.812Z,6.95
2022-08-23T03:54:36.309Z,5.85
2022-08-23T03:57:09.370Z,6.05
2022-08-23T03:59:41.130Z,5.90
2022-08-23T04:02:10.068Z,5.47
2022-08-23T04:04:38.335Z,5.65
2022-08-23T04:07:06.747Z,6.00
2022-08-23T04:09:36.198Z,6.35
2022-08-23T04:12:12.075Z,5.97
2022-08-23T04:14:46.734Z,5.95
2022-08-23T04:17:15.739Z,6.60
2022-08-23T04:19:43.962Z,6.32
2022-08-23T04:22:16.061Z,6.00
2022-08-23T04:24:47.198Z,5.40
2022-08-23T04:27:15.939Z,6.45
2022-08-23T04:29:44.357Z,5.93
2022-08-23T04:32:12.903Z,6.13
2022-08-23T04:34:45.369Z,5.70
2022-08-23T04:37:14.047Z,6.15
2022-08-23T04:39:56.560Z,5.72
2022-08-23T04:42:26.201Z,5.22
2022-08-23T04:44:54.280Z,5.57
2022-08-23T04:47:22.380Z,5.78
2022-08-23T04:49:50.473Z,5.55
2022-08-23T04:52:19.525Z,6.05
2022-08-23T04:54:47.925Z,5.53
2022-08-23T04:57:16.802Z,5.47
2022-08-23T04:59:46.248Z,5.70
2022-08-23T05:02:14.603Z,6.00
2022-08-23T05:04:42.716Z,5.70
2022-08-23T05:07:10.844Z,6.07
2022-08-23T05:09:39.254Z,5.68
2022-08-23T05:12:07.854Z,5.95
2022-08-23T05:14:36.551Z,6.55
2022-08-23T05:17:06.511Z,6.57
2022-08-23T05:19:36.274Z,5.97
2022-08-23T05:22:12.608Z,6.18
2022-08-23T05:24:40.942Z,6.03
2022-08-23T05:27:13.490Z,5.95
2022-08-23T05:29:42.134Z,5.85
2022-08-23T05:32:11.653Z,6.05
2022-08-23T05:34:39.716Z,5.47
2022-08-23T05:37:07.773Z,5.68
2022-08-23T05:39:36.256Z,6.03
2022-08-23T05:42:05.744Z,5.70
2022-08-23T05:44:36.124Z,5.35
2022-08-23T05:47:10.738Z,5.75
2022-08-23T05:49:41.497Z,5.15
2022-08-23T05:52:13.091Z,5.35
2022-08-23T05:54:42.003Z,5.70
2022-08-23T05:57:11.438Z,5.38
2022-08-23T05:59:40.617Z,6.28
2022-08-23T06:02:08.801Z,6.07
2022-08-23T06:04:37.128Z,5.75
2022-08-23T06:07:06.875Z,5.18
2022-08-23T06:09:35.120Z,5.30
2022-08-23T06:12:03.535Z,4.85
2022-08-23T06:14:31.764Z,4.60
2022-08-23T06:16:59.928Z,5.43
2022-08-23T06:19:28.099Z,5.18
2022-08-23T06:21:56.294Z,5.05
2022-08-23T06:24:26.896Z,5.60
2022-08-23T06:26:55.071Z,5.38
2022-08-23T06:29:23.262Z,4.10
2022-08-23T06:31:54.117Z,7.10
2022-08-23T06:34:26.328Z,4.78
2022-08-23T06:36:57.451Z,5.60
2022-08-23T06:39:33.442Z,4.70
2022-08-23T06:42:34.433Z,5.30
2022-08-23T06:44:57.463Z,5.40
2022-08-23T06:47:25.614Z,5.07
2022-08-23T06:49:57.930Z,5.43
2022-08-23T06:52:27.243Z,4.97
2022-08-23T06:54:57.911Z,4.85
2022-08-23T06:57:26.448Z,5.05
2022-08-23T06:59:54.964Z,4.72
2022-08-23T07:02:23.173Z,5.57
2022-08-23T07:04:54.028Z,5.53
2022-08-23T07:07:22.639Z,5.78
2022-08-23T07:09:50.935Z,5.60
2022-08-23T07:12:22.059Z,4.80
2022-08-23T07:14:50.451Z,5.18
2022-08-23T07:17:18.698Z,5.00
2022-08-23T07:19:47.068Z,4.60
2022-08-23T07:22:15.553Z,4.97
2022-08-23T07:24:44.061Z,5.03
2022-08-23T07:27:12.683Z,5.15
2022-08-23T07:29:42.584Z,4.68
2022-08-23T07:32:11.277Z,4.50
2022-08-23T07:34:39.448Z,4.50
2022-08-23T07:37:15.448Z,4.35
2022-08-23T07:39:44.513Z,4.80
2022-08-23T07:42:22.753Z,4.43
2022-08-23T07:44:53.875Z,4.13
2022-08-23T07:47:22.511Z,4.22
2022-08-23T07:49:51.021Z,4.45
2022-08-23T07:52:19.098Z,3.97
2022-08-23T07:54:48.331Z,5.20
2022-08-23T07:57:16.977Z,4.57
2022-08-23T07:59:45.921Z,4.50
2022-08-23T08:02:15.702Z,5.03
2022-08-23T08:04:44.010Z,4.32
2022-08-23T08:07:19.394Z,5.22
2022-08-23T08:09:49.101Z,4.32
2022-08-23T08:12:17.680Z,4.90
2022-08-23T08:14:46.834Z,4.50
2022-08-23T08:17:17.114Z,4.22
2022-08-23T08:19:46.025Z,4.20
2022-08-23T08:22:14.176Z,4.18
2022-08-23T08:24:42.497Z,4.30
2022-08-23T08:27:11.038Z,4.15
2022-08-23T08:29:39.076Z,4.13
2022-08-23T08:32:08.178Z,4.07
2022-08-23T08:34:43.757Z,3.90
2022-08-23T08:37:12.149Z,3.40
2022-08-23T08:39:45.540Z,3.30
2022-08-23T08:42:41.376Z,3.53
2022-08-23T08:45:17.576Z,3.03
2022-08-23T08:47:51.102Z,3.08
2022-08-23T08:50:26.615Z,2.80
2022-08-23T08:53:02.674Z,2.92
2022-08-23T08:55:38.144Z,2.70
2022-08-23T08:58:15.254Z,2.92
2022-08-23T09:00:44.102Z,2.60
2022-08-23T09:03:20.316Z,2.85
2022-08-23T09:05:58.488Z,2.83
2022-08-23T09:08:54.463Z,2.90
2022-08-23T09:11:40.973Z,2.65
2022-08-23T09:14:47.299Z,2.90
2022-08-23T09:17:26.287Z,2.70
2022-08-23T09:20:01.297Z,2.67
2022-08-23T09:22:38.836Z,2.55
2022-08-23T09:25:10.812Z,2.33
2022-08-23T09:27:39.582Z,2.88
2022-08-23T09:30:09.580Z,2.70
2022-08-23T09:32:41.276Z,2.80
2022-08-23T09:35:17.222Z,3.13
2022-08-23T09:37:59.368Z,2.92
2022-08-23T09:40:35.163Z,2.67
2022-08-23T09:43:14.210Z,3.13
2022-08-23T09:45:55.928Z,2.53
2022-08-23T09:48:40.907Z,2.78
2022-08-23T09:51:20.720Z,3.25
2022-08-23T09:54:02.955Z,3.28
2022-08-23T09:56:37.922Z,3.10
2022-08-23T09:59:26.940Z,3.13
2022-08-23T10:01:59.202Z,3.38
2022-08-23T10:04:44.674Z,3.92
2022-08-23T10:07:38.279Z,4.00
2022-08-23T10:10:24.426Z,4.20
2022-08-23T10:12:54.296Z,3.72
2022-08-23T10:15:41.415Z,3.80
2022-08-23T10:18:23.698Z,3.08
2022-08-23T10:21:04.183Z,3.15
2022-08-23T10:23:51.040Z,3.13
2022-08-23T10:26:28.251Z,3.38
2022-08-23T10:29:26.201Z,2.58
2022-08-23T10:32:15.180Z,2.60
2022-08-23T10:34:59.415Z,3.00
2022-08-23T10:37:45.984Z,2.35
2022-08-23T10:40:25.568Z,2.25
2022-08-23T10:43:15.175Z,2.47
2022-08-23T10:45:47.544Z,2.20
2022-08-23T10:48:28.548Z,2.47
2022-08-23T10:51:02.488Z,3.13
2022-08-23T10:53:41.447Z,2.80
2022-08-23T10:56:13.474Z,2.80
2022-08-23T10:58:48.938Z,3.20
2022-08-23T11:01:22.993Z,2.80
2022-08-23T11:04:04.853Z,2.72
2022-08-23T11:06:50.967Z,2.88
2022-08-23T11:09:51.051Z,2.78
2022-08-23T11:12:30.831Z,2.70
2022-08-23T11:15:25.403Z,3.15
2022-08-23T11:18:03.299Z,2.40
2022-08-23T11:21:04.725Z,2.47
2022-08-23T11:23:58.087Z,3.00
2022-08-23T11:27:06.415Z,2.38
2022-08-23T11:29:38.936Z,2.38
2022-08-23T11:32:43.687Z,2.90
2022-08-23T11:35:43.095Z,2.45
2022-08-23T11:38:13.090Z,2.80
2022-08-23T11:41:01.104Z,2.50
2022-08-23T11:43:35.092Z,2.40
2022-08-23T11:46:34.701Z,3.05
2022-08-23T11:50:04.158Z,2.95
2022-08-23T11:53:22.771Z,2.85
2022-08-23T11:56:17.392Z,2.50
2022-08-23T11:59:21.013Z,2.63
2022-08-23T12:01:52.041Z,2.50
2022-08-23T12:04:39.097Z,3.05
2022-08-23T12:07:13.114Z,2.72
2022-08-23T12:09:57.823Z,2.65
2022-08-23T12:12:38.123Z,2.60
2022-08-23T12:15:11.988Z,2.55
2022-08-23T12:18:24.440Z,2.40
2022-08-23T12:20:59.997Z,2.33
2022-08-23T12:23:30.936Z,2.80
2022-08-23T12:26:04.377Z,2.47
2022-08-23T12:28:49.668Z,2.58
2022-08-23T12:31:29.772Z,2.85
2022-08-23T12:34:23.322Z,3.08
2022-08-23T12:37:08.869Z,3.15
2022-08-23T12:39:47.974Z,2.75
2022-08-23T12:42:21.112Z,2.97
2022-08-23T12:45:03.938Z,2.33
2022-08-23T12:47:32.755Z,2.95
2022-08-23T12:50:09.170Z,2.83
2022-08-23T12:52:38.699Z,2.95
2022-08-23T12:55:18.454Z,3.38
2022-08-23T12:57:55.204Z,2.55
2022-08-23T13:00:28.874Z,3.22
2022-08-23T13:03:02.200Z,2.70
2022-08-23T13:05:46.037Z,2.10
2022-08-23T13:08:22.808Z,2.25
2022-08-23T13:11:08.012Z,2.60
2022-08-23T13:13:40.886Z,2.15
2022-08-23T13:16:28.193Z,3.20
2022-08-23T13:19:19.152Z,2.30
2022-08-23T13:21:47.361Z,2.35
2022-08-23T13:24:38.277Z,2.65
2022-08-23T13:27:23.197Z,2.08
2022-08-23T13:29:56.383Z,2.30
2022-08-23T13:32:41.723Z,2.40
2022-08-23T13:35:35.912Z,2.25
2022-08-23T13:38:21.369Z,2.25
2022-08-23T13:41:01.086Z,2.22
2022-08-23T13:43:38.633Z,2.22
2022-08-23T13:46:19.444Z,2.10
2022-08-23T13:48:59.168Z,2.38
2022-08-23T13:51:32.277Z,2.42
2022-08-23T13:54:03.464Z,2.45
2022-08-23T13:56:36.598Z,2.20
2022-08-23T13:59:26.760Z,2.15
2022-08-23T14:01:56.391Z,2.00
2022-08-23T14:04:24.654Z,2.20
2022-08-23T14:06:52.759Z,2.50
2022-08-23T14:09:21.098Z,1.88
2022-08-23T14:11:55.491Z,2.10
2022-08-23T14:14:25.538Z,1.88
2022-08-23T14:16:54.413Z,2.05
2022-08-23T14:22:10.865Z,2.10
2022-08-23T14:24:39.246Z,1.98
2022-08-23T14:27:09.078Z,1.92
2022-08-23T14:29:39.308Z,2.03
2022-08-23T14:32:07.669Z,1.83
2022-08-23T14:34:35.842Z,1.92
2022-08-23T14:39:52.378Z,1.85
2022-08-23T14:42:24.355Z,2.00
2022-08-23T14:44:53.925Z,1.83
2022-08-23T14:47:22.011Z,2.03
2022-08-23T14:49:53.674Z,2.00
2022-08-23T14:52:23.946Z,2.03
2022-08-23T14:54:52.137Z,2.00
2022-08-23T14:57:20.433Z,2.00
2022-08-23T14:59:48.603Z,2.10
2022-08-23T15:02:25.004Z,2.17
2022-08-23T15:04:54.030Z,2.33
2022-08-23T15:07:22.969Z,2.17
2022-08-23T15:09:55.143Z,2.13
2022-08-23T15:15:21.895Z,2.33
2022-08-23T15:17:55.861Z,2.67
2022-08-23T15:20:28.040Z,2.10
2022-08-23T15:22:56.340Z,2.55
2022-08-23T15:25:26.691Z,2.97
2022-08-23T15:27:55.259Z,2.60
2022-08-23T15:30:25.174Z,2.47
2022-08-23T15:32:56.625Z,2.40
2022-08-23T15:35:25.919Z,2.53
2022-08-23T15:37:55.958Z,2.45
2022-08-23T15:40:25.865Z,2.70
2022-08-23T15:42:54.362Z,2.47
2022-08-23T15:45:22.868Z,2.50
2022-08-23T15:47:56.363Z,2.50
2022-08-23T15:50:30.981Z,2.55
2022-08-23T15:52:59.410Z,2.20
2022-08-23T15:55:33.485Z,2.50
2022-08-23T15:58:01.755Z,2.65
2022-08-23T16:00:30.177Z,2.20
2022-08-23T16:03:18.527Z,3.90
2022-08-23T16:05:52.266Z,2.70
2022-08-23T16:08:26.354Z,2.50
2022-08-23T16:10:55.520Z,2.47
2022-08-23T16:13:24.997Z,2.40
2022-08-23T16:15:53.881Z,2.35
2022-08-23T16:18:23.501Z,2.40
2022-08-23T16:20:54.320Z,2.60
2022-08-23T16:23:23.143Z,2.28
2022-08-23T16:25:51.440Z,2.22
2022-08-23T16:28:19.670Z,2.70
2022-08-23T16:30:47.906Z,3.50
2022-08-23T16:33:16.095Z,2.60
2022-08-23T16:35:45.797Z,2.70
2022-08-23T16:38:13.981Z,2.78
2022-08-23T16:40:42.093Z,7.03
2022-08-23T16:43:10.232Z,3.00
2022-08-23T16:45:38.409Z,7.38
2022-08-23T16:48:06.945Z,3.20
2022-08-23T16:50:35.016Z,2.92
2022-08-23T16:53:07.375Z,2.90
2022-08-23T16:55:36.239Z,2.40
2022-08-23T16:58:05.968Z,3.35
2022-08-23T17:00:34.862Z,2.95
2022-08-23T17:03:04.048Z,2.85
2022-08-23T17:05:32.379Z,2.85
2022-08-23T17:08:00.864Z,2.83
2022-08-23T17:10:30.579Z,2.65
2022-08-23T17:12:59.632Z,2.90
2022-08-23T17:15:32.030Z,2.65
2022-08-23T17:18:00.806Z,2.72
2022-08-23T17:20:33.717Z,2.47
2022-08-23T17:23:05.678Z,3.00
2022-08-23T17:25:36.352Z,3.00
2022-08-23T17:28:06.634Z,2.95
2022-08-23T17:30:35.481Z,4.07
2022-08-23T17:33:04.242Z,2.60
2022-08-23T17:35:34.747Z,2.78
2022-08-23T17:38:05.345Z,2.95
2022-08-23T17:40:39.768Z,2.40
2022-08-23T17:43:08.485Z,2.70
2022-08-23T17:45:44.183Z,3.55
2022-08-23T17:48:13.018Z,4.10
2022-08-23T17:50:43.568Z,2.60
2022-08-23T17:53:14.406Z,2.30
2022-08-23T17:55:44.640Z,2.55
2022-08-23T17:58:14.137Z,2.78
2022-08-23T18:00:42.554Z,2.45
2022-08-23T18:03:10.705Z,2.40
2022-08-23T18:05:41.050Z,2.83
2022-08-23T18:08:10.266Z,2.90
2022-08-23T18:10:38.424Z,2.97
2022-08-23T18:13:08.308Z,3.20
2022-08-23T18:15:36.596Z,3.13
2022-08-23T18:18:06.128Z,3.40
2022-08-23T18:20:34.730Z,3.33
2022-08-23T18:23:03.342Z,3.08
2022-08-23T18:25:32.088Z,3.42
2022-08-23T18:28:08.528Z,3.70
2022-08-23T18:30:40.907Z,3.53
2022-08-23T18:33:12.489Z,3.63
2022-08-23T18:35:42.712Z,3.75
2022-08-23T18:38:12.516Z,3.55
2022-08-23T18:40:46.137Z,3.30
2022-08-23T18:43:16.797Z,3.00
2022-08-23T18:45:48.532Z,3.35
2022-08-23T18:48:17.502Z,3.20
2022-08-23T18:50:47.265Z,3.15
2022-08-23T18:53:15.559Z,2.90
2022-08-23T18:55:44.203Z,4.50
2022-08-23T18:58:12.288Z,4.30
2022-08-23T19:00:41.814Z,3.80
2022-08-23T19:03:12.366Z,3.55
2022-08-23T19:05:42.550Z,3.40
2022-08-23T19:08:12.115Z,3.92
2022-08-23T19:10:41.766Z,3.60
2022-08-23T19:13:10.947Z,3.33
2022-08-23T19:15:42.030Z,3.35
2022-08-23T19:18:11.674Z,3.72
2022-08-23T19:20:39.759Z,3.42
2022-08-23T19:23:07.972Z,3.42
2022-08-23T19:25:38.461Z,3.28
2022-08-23T19:28:07.373Z,3.80
2022-08-23T19:30:35.764Z,3.92
2022-08-23T19:33:04.622Z,4.18
2022-08-23T19:35:34.823Z,3.65
2022-08-23T19:38:03.299Z,3.65
2022-08-23T19:40:31.529Z,3.45
2022-08-23T19:43:00.415Z,3.47
2022-08-23T19:45:31.973Z,3.67
2022-08-23T19:48:00.914Z,3.45
2022-08-23T19:50:30.316Z,3.60
2022-08-23T19:53:00.015Z,3.47
2022-08-23T19:55:29.122Z,3.67
2022-08-23T19:57:58.188Z,3.88
2022-08-23T20:00:28.082Z,3.90
2022-08-23T20:02:56.246Z,3.50
2022-08-23T20:05:24.399Z,3.90
2022-08-23T20:07:52.604Z,3.90
2022-08-23T20:10:22.693Z,4.10
2022-08-23T20:12:50.814Z,3.80
2022-08-23T20:15:19.258Z,3.80
2022-08-23T20:17:47.335Z,3.90
2022-08-23T20:20:15.507Z,3.88
2022-08-23T20:23:01.514Z,3.80
2022-08-23T20:25:31.734Z,4.07
2022-08-23T20:28:00.157Z,3.72
2022-08-23T20:30:28.311Z,3.72
2022-08-23T20:32:56.529Z,4.38
2022-08-23T20:35:24.884Z,3.95
2022-08-23T20:37:52.988Z,4.35
2022-08-23T20:40:21.844Z,4.50
2022-08-23T20:42:52.178Z,4.40
2022-08-23T20:45:20.654Z,4.00
2022-08-23T20:47:48.799Z,4.22
2022-08-23T20:50:17.191Z,4.68
2022-08-23T20:52:45.347Z,4.63
2022-08-23T20:55:15.300Z,4.32
2022-08-23T20:57:43.442Z,5.25
2022-08-23T21:00:14.511Z,5.40
2022-08-23T21:02:42.627Z,5.35
2022-08-23T21:05:11.209Z,5.03
2022-08-23T21:07:40.095Z,4.60
2022-08-23T21:10:10.788Z,4.88
2022-08-23T21:12:39.177Z,5.03
2022-08-23T21:15:11.075Z,4.68
2022-08-23T21:17:40.844Z,5.43
2022-08-23T21:20:09.977Z,5.00
2022-08-23T21:22:38.207Z,5.05
2022-08-23T21:25:07.473Z,5.03
2022-08-23T21:27:36.412Z,5.05
2022-08-23T21:30:06.443Z,4.93
2022-08-23T21:32:34.712Z,5.15
2022-08-23T21:35:04.629Z,5.32
2022-08-23T21:37:32.906Z,5.38
2022-08-23T21:40:01.389Z,5.60
2022-08-23T21:42:30.525Z,5.70
2022-08-23T21:44:58.726Z,5.40
2022-08-23T21:47:27.078Z,5.55
2022-08-23T21:49:55.423Z,5.53
2022-08-23T21:52:25.083Z,5.25
2022-08-23T21:54:53.489Z,5.57
2022-08-23T21:57:21.621Z,5.20
2022-08-23T21:59:50.207Z,6.40
2022-08-23T22:02:19.245Z,6.05
2022-08-23T22:04:48.162Z,5.97
2022-08-23T22:07:16.313Z,6.57
2022-08-23T22:09:46.741Z,6.72
2022-08-23T22:12:15.088Z,6.18
2022-08-23T22:14:43.208Z,6.10
2022-08-23T22:17:11.371Z,5.95
2022-08-23T22:19:39.503Z,6.55
2022-08-23T22:22:07.678Z,6.28
2022-08-23T22:24:35.827Z,6.38
2022-08-23T22:27:06.105Z,6.50
2022-08-23T22:29:34.571Z,5.90
2022-08-23T22:32:03.027Z,6.70
2022-08-23T22:34:31.293Z,6.55
2022-08-23T22:36:59.452Z,6.68
2022-08-23T22:39:27.861Z,6.03
2022-08-23T22:41:56.351Z,7.00
2022-08-23T22:44:25.769Z,5.88
2022-08-23T22:46:53.923Z,6.43
2022-08-23T22:49:22.108Z,6.90
2022-08-23T22:51:55.516Z,7.00
2022-08-23T22:54:24.612Z,6.90
2022-08-23T22:56:54.747Z,6.28
2022-08-23T22:59:31.150Z,6.53
2022-08-23T23:02:03.364Z,6.40
2022-08-23T23:04:33.643Z,6.72
2022-08-23T23:07:02.555Z,6.50
2022-08-23T23:09:30.902Z,6.93
2022-08-23T23:11:59.195Z,6.90
2022-08-23T23:14:28.901Z,6.90
2022-08-23T23:16:57.150Z,7.18
2022-08-23T23:19:42.844Z,6.75
2022-08-23T23:22:14.221Z,6.57
2022-08-23T23:24:42.524Z,7.00
2022-08-23T23:27:10.637Z,6.90
2022-08-23T23:29:40.082Z,6.70
2022-08-23T23:32:08.488Z,6.43
2022-08-23T23:34:37.845Z,6.70
2022-08-23T23:37:06.289Z,6.88
2022-08-23T23:39:34.549Z,6.68
2022-08-23T23:42:02.724Z,6.97
2022-08-23T23:44:31.950Z,6.90
2022-08-23T23:47:02.350Z,6.75
2022-08-23T23:49:33.489Z,7.57
2022-08-23T23:52:04.310Z,7.70
2022-08-23T23:54:35.409Z,7.47
2022-08-23T23:57:04.420Z,7.93
2022-08-23T23:59:33.067Z,7.80
